sensor_id;sensor_type;location;lat;lon;timestamp;temperature;humidity
28087;DHT22;15392;48.912;8.380;2022-11-15T00:00:53;14.90;59.80
28087;DHT22;15392;48.912;8.380;2022-11-15T00:03:22;14.90;59.80
28087;DHT22;15392;48.912;8.380;2022-11-15T00:05:52;15.00;59.90
28087;DHT22;15392;48.912;8.380;2022-11-15T00:08:18;14.90;59.80
28087;DHT22;15392;48.912;8.380;2022-11-15T00:10:56;14.90;59.90
28087;DHT22;15392;48.912;8.380;2022-11-15T00:13:23;14.90;60.10
28087;DHT22;15392;48.912;8.380;2022-11-15T00:15:49;14.90;59.90
28087;DHT22;15392;48.912;8.380;2022-11-15T00:18:15;14.90;59.90
28087;DHT22;15392;48.912;8.380;2022-11-15T00:20:41;15.00;60.00
28087;DHT22;15392;48.912;8.380;2022-11-15T00:23:08;15.00;59.90
28087;DHT22;15392;48.912;8.380;2022-11-15T00:25:34;15.00;59.90
28087;DHT22;15392;48.912;8.380;2022-11-15T00:28:00;15.00;59.80
28087;DHT22;15392;48.912;8.380;2022-11-15T00:30:27;15.00;59.80
28087;DHT22;15392;48.912;8.380;2022-11-15T00:32:53;15.00;59.80
28087;DHT22;15392;48.912;8.380;2022-11-15T00:35:19;15.00;59.80
28087;DHT22;15392;48.912;8.380;2022-11-15T00:37:46;15.00;59.80
28087;DHT22;15392;48.912;8.380;2022-11-15T00:40:13;15.00;59.70
28087;DHT22;15392;48.912;8.380;2022-11-15T00:42:39;15.00;59.70
28087;DHT22;15392;48.912;8.380;2022-11-15T00:45:05;15.00;59.70
28087;DHT22;15392;48.912;8.380;2022-11-15T00:47:32;15.00;59.70
28087;DHT22;15392;48.912;8.380;2022-11-15T00:49:58;15.00;59.80
28087;DHT22;15392;48.912;8.380;2022-11-15T00:52:24;15.00;59.80
28087;DHT22;15392;48.912;8.380;2022-11-15T00:54:49;14.90;59.80
28087;DHT22;15392;48.912;8.380;2022-11-15T00:57:15;15.00;59.90
28087;DHT22;15392;48.912;8.380;2022-11-15T00:59:41;15.00;59.90
28087;DHT22;15392;48.912;8.380;2022-11-15T01:02:06;14.90;59.80
28087;DHT22;15392;48.912;8.380;2022-11-15T01:04:32;15.00;59.90
28087;DHT22;15392;48.912;8.380;2022-11-15T01:06:58;15.00;59.90
28087;DHT22;15392;48.912;8.380;2022-11-15T01:09:24;14.90;59.90
28087;DHT22;15392;48.912;8.380;2022-11-15T01:11:49;14.90;59.90
28087;DHT22;15392;48.912;8.380;2022-11-15T01:14:15;14.90;59.90
28087;DHT22;15392;48.912;8.380;2022-11-15T01:16:41;14.90;59.90
28087;DHT22;15392;48.912;8.380;2022-11-15T01:19:07;14.90;60.00
28087;DHT22;15392;48.912;8.380;2022-11-15T01:21:32;14.90;60.00
28087;DHT22;15392;48.912;8.380;2022-11-15T01:23:58;15.00;60.10
28087;DHT22;15392;48.912;8.380;2022-11-15T01:26:24;14.90;60.00
28087;DHT22;15392;48.912;8.380;2022-11-15T01:28:51;14.90;60.00
28087;DHT22;15392;48.912;8.380;2022-11-15T01:31:19;14.90;60.00
28087;DHT22;15392;48.912;8.380;2022-11-15T01:33:46;15.00;60.20
28087;DHT22;15392;48.912;8.380;2022-11-15T01:36:19;15.00;60.20
28087;DHT22;15392;48.912;8.380;2022-11-15T01:38:52;15.00;60.20
28087;DHT22;15392;48.912;8.380;2022-11-15T01:41:22;15.00;60.10
28087;DHT22;15392;48.912;8.380;2022-11-15T01:43:54;15.00;60.10
28087;DHT22;15392;48.912;8.380;2022-11-15T01:46:27;15.00;60.00
28087;DHT22;15392;48.912;8.380;2022-11-15T01:48:57;15.00;60.00
28087;DHT22;15392;48.912;8.380;2022-11-15T01:51:27;15.00;60.00
28087;DHT22;15392;48.912;8.380;2022-11-15T01:53:57;15.00;60.00
28087;DHT22;15392;48.912;8.380;2022-11-15T01:56:29;15.00;60.00
28087;DHT22;15392;48.912;8.380;2022-11-15T01:58:58;15.10;60.20
28087;DHT22;15392;48.912;8.380;2022-11-15T02:01:26;15.00;60.10
28087;DHT22;15392;48.912;8.380;2022-11-15T02:04:10;15.10;60.20
28087;DHT22;15392;48.912;8.380;2022-11-15T02:06:39;15.10;60.40
28087;DHT22;15392;48.912;8.380;2022-11-15T02:09:05;15.00;60.10
28087;DHT22;15392;48.912;8.380;2022-11-15T02:11:31;15.10;60.20
28087;DHT22;15392;48.912;8.380;2022-11-15T02:13:58;15.10;60.20
28087;DHT22;15392;48.912;8.380;2022-11-15T02:16:42;15.10;60.20
28087;DHT22;15392;48.912;8.380;2022-11-15T02:25:37;15.10;60.10
28087;DHT22;15392;48.912;8.380;2022-11-15T02:34:05;15.10;60.20
28087;DHT22;15392;48.912;8.380;2022-11-15T02:37:02;15.10;60.20
28087;DHT22;15392;48.912;8.380;2022-11-15T02:39:46;15.10;60.80
28087;DHT22;15392;48.912;8.380;2022-11-15T02:42:26;15.10;60.60
28087;DHT22;15392;48.912;8.380;2022-11-15T02:45:16;15.10;60.60
28087;DHT22;15392;48.912;8.380;2022-11-15T02:47:52;15.10;60.50
28087;DHT22;15392;48.912;8.380;2022-11-15T02:50:23;15.10;60.50
28087;DHT22;15392;48.912;8.380;2022-11-15T02:52:50;15.10;60.50
28087;DHT22;15392;48.912;8.380;2022-11-15T02:55:34;15.10;61.00
28087;DHT22;15392;48.912;8.380;2022-11-15T03:00:58;15.10;60.50
28087;DHT22;15392;48.912;8.380;2022-11-15T03:09:19;15.10;60.40
28087;DHT22;15392;48.912;8.380;2022-11-15T03:12:22;15.10;60.40
28087;DHT22;15392;48.912;8.380;2022-11-15T03:15:05;15.10;60.40
28087;DHT22;15392;48.912;8.380;2022-11-15T03:17:41;15.20;60.50
28087;DHT22;15392;48.912;8.380;2022-11-15T03:20:29;15.10;60.50
28087;DHT22;15392;48.912;8.380;2022-11-15T03:23:02;15.20;60.40
28087;DHT22;15392;48.912;8.380;2022-11-15T03:25:32;15.10;60.50
28087;DHT22;15392;48.912;8.380;2022-11-15T03:28:02;15.20;60.50
28087;DHT22;15392;48.912;8.380;2022-11-15T03:30:32;15.20;60.50
28087;DHT22;15392;48.912;8.380;2022-11-15T03:33:00;15.20;60.40
28087;DHT22;15392;48.912;8.380;2022-11-15T03:35:32;15.20;60.40
28087;DHT22;15392;48.912;8.380;2022-11-15T03:41:00;15.20;60.40
28087;DHT22;15392;48.912;8.380;2022-11-15T03:44:12;15.20;60.50
28087;DHT22;15392;48.912;8.380;2022-11-15T03:47:36;15.20;60.60
28087;DHT22;15392;48.912;8.380;2022-11-15T03:50:11;15.20;60.50
28087;DHT22;15392;48.912;8.380;2022-11-15T03:52:45;15.20;60.10
28087;DHT22;15392;48.912;8.380;2022-11-15T03:55:15;15.10;60.00
28087;DHT22;15392;48.912;8.380;2022-11-15T03:57:43;15.10;60.00
28087;DHT22;15392;48.912;8.380;2022-11-15T04:00:09;15.10;59.90
28087;DHT22;15392;48.912;8.380;2022-11-15T04:02:36;15.10;59.90
28087;DHT22;15392;48.912;8.380;2022-11-15T04:05:03;15.10;59.90
28087;DHT22;15392;48.912;8.380;2022-11-15T04:07:29;15.10;59.90
28087;DHT22;15392;48.912;8.380;2022-11-15T04:09:54;15.10;60.00
28087;DHT22;15392;48.912;8.380;2022-11-15T04:12:34;15.10;60.00
28087;DHT22;15392;48.912;8.380;2022-11-15T04:15:12;15.10;60.10
28087;DHT22;15392;48.912;8.380;2022-11-15T04:17:48;15.10;60.10
28087;DHT22;15392;48.912;8.380;2022-11-15T04:20:19;15.00;60.00
28087;DHT22;15392;48.912;8.380;2022-11-15T04:23:19;15.00;60.00
28087;DHT22;15392;48.912;8.380;2022-11-15T04:26:11;15.10;60.00
28087;DHT22;15392;48.912;8.380;2022-11-15T04:28:40;15.00;59.90
28087;DHT22;15392;48.912;8.380;2022-11-15T04:31:26;15.00;59.90
28087;DHT22;15392;48.912;8.380;2022-11-15T04:33:53;15.00;60.00
28087;DHT22;15392;48.912;8.380;2022-11-15T04:36:19;15.00;60.00
28087;DHT22;15392;48.912;8.380;2022-11-15T04:39:04;15.00;60.00
28087;DHT22;15392;48.912;8.380;2022-11-15T04:41:30;14.90;60.00
28087;DHT22;15392;48.912;8.380;2022-11-15T04:43:56;14.90;60.10
28087;DHT22;15392;48.912;8.380;2022-11-15T04:46:22;14.90;60.10
28087;DHT22;15392;48.912;8.380;2022-11-15T04:48:49;14.90;60.20
28087;DHT22;15392;48.912;8.380;2022-11-15T04:51:15;14.90;60.30
28087;DHT22;15392;48.912;8.380;2022-11-15T04:53:41;14.90;60.40
28087;DHT22;15392;48.912;8.380;2022-11-15T04:56:08;14.90;60.50
28087;DHT22;15392;48.912;8.380;2022-11-15T04:58:34;14.90;60.50
28087;DHT22;15392;48.912;8.380;2022-11-15T05:01:10;14.90;60.50
28087;DHT22;15392;48.912;8.380;2022-11-15T05:03:37;14.90;60.70
28087;DHT22;15392;48.912;8.380;2022-11-15T05:06:30;14.90;60.50
28087;DHT22;15392;48.912;8.380;2022-11-15T05:08:56;14.90;60.50
28087;DHT22;15392;48.912;8.380;2022-11-15T05:11:22;14.90;60.50
28087;DHT22;15392;48.912;8.380;2022-11-15T05:13:49;14.90;60.50
28087;DHT22;15392;48.912;8.380;2022-11-15T05:16:15;14.90;60.50
28087;DHT22;15392;48.912;8.380;2022-11-15T05:18:41;14.90;60.50
28087;DHT22;15392;48.912;8.380;2022-11-15T05:21:09;14.90;60.50
28087;DHT22;15392;48.912;8.380;2022-11-15T05:23:36;14.90;60.60
28087;DHT22;15392;48.912;8.380;2022-11-15T05:26:03;14.90;60.60
28087;DHT22;15392;48.912;8.380;2022-11-15T05:28:31;14.90;60.70
28087;DHT22;15392;48.912;8.380;2022-11-15T05:31:06;14.90;60.80
28087;DHT22;15392;48.912;8.380;2022-11-15T05:33:34;14.90;61.00
28087;DHT22;15392;48.912;8.380;2022-11-15T05:39:05;14.90;61.10
28087;DHT22;15392;48.912;8.380;2022-11-15T05:41:45;14.90;60.70
28087;DHT22;15392;48.912;8.380;2022-11-15T05:44:15;14.90;61.00
28087;DHT22;15392;48.912;8.380;2022-11-15T05:46:43;14.90;60.70
28087;DHT22;15392;48.912;8.380;2022-11-15T05:49:12;14.90;60.70
28087;DHT22;15392;48.912;8.380;2022-11-15T05:51:40;14.90;60.90
28087;DHT22;15392;48.912;8.380;2022-11-15T05:54:07;14.90;60.60
28087;DHT22;15392;48.912;8.380;2022-11-15T05:56:33;14.90;60.50
28087;DHT22;15392;48.912;8.380;2022-11-15T05:58:59;14.90;60.50
28087;DHT22;15392;48.912;8.380;2022-11-15T06:01:25;14.90;60.50
28087;DHT22;15392;48.912;8.380;2022-11-15T06:03:52;14.90;60.40
28087;DHT22;15392;48.912;8.380;2022-11-15T06:06:17;14.90;60.40
28087;DHT22;15392;48.912;8.380;2022-11-15T06:08:43;14.90;60.30
28087;DHT22;15392;48.912;8.380;2022-11-15T06:11:09;14.90;60.30
28087;DHT22;15392;48.912;8.380;2022-11-15T06:13:34;14.90;60.20
28087;DHT22;15392;48.912;8.380;2022-11-15T06:16:00;14.90;60.10
28087;DHT22;15392;48.912;8.380;2022-11-15T06:18:27;14.90;60.10
28087;DHT22;15392;48.912;8.380;2022-11-15T06:20:52;14.90;60.10
28087;DHT22;15392;48.912;8.380;2022-11-15T06:23:18;14.80;60.10
28087;DHT22;15392;48.912;8.380;2022-11-15T06:25:44;14.90;60.20
28087;DHT22;15392;48.912;8.380;2022-11-15T06:28:10;14.80;60.20
28087;DHT22;15392;48.912;8.380;2022-11-15T06:30:35;14.80;60.10
28087;DHT22;15392;48.912;8.380;2022-11-15T06:33:03;14.80;60.20
28087;DHT22;15392;48.912;8.380;2022-11-15T06:35:32;14.80;60.20
28087;DHT22;15392;48.912;8.380;2022-11-15T06:38:04;14.80;60.30
28087;DHT22;15392;48.912;8.380;2022-11-15T06:40:34;14.80;61.20
28087;DHT22;15392;48.912;8.380;2022-11-15T06:43:00;14.80;60.30
28087;DHT22;15392;48.912;8.380;2022-11-15T06:45:27;14.90;60.40
28087;DHT22;15392;48.912;8.380;2022-11-15T06:47:53;14.90;60.40
28087;DHT22;15392;48.912;8.380;2022-11-15T06:50:19;14.90;60.30
28087;DHT22;15392;48.912;8.380;2022-11-15T06:52:45;14.90;60.30
28087;DHT22;15392;48.912;8.380;2022-11-15T06:55:10;14.90;60.30
28087;DHT22;15392;48.912;8.380;2022-11-15T06:57:37;14.90;60.40
28087;DHT22;15392;48.912;8.380;2022-11-15T07:00:04;14.90;60.50
28087;DHT22;15392;48.912;8.380;2022-11-15T07:02:31;14.90;60.50
28087;DHT22;15392;48.912;8.380;2022-11-15T07:04:56;14.90;60.60
28087;DHT22;15392;48.912;8.380;2022-11-15T07:07:22;14.90;61.50
28087;DHT22;15392;48.912;8.380;2022-11-15T07:09:48;14.90;60.70
28087;DHT22;15392;48.912;8.380;2022-11-15T07:12:13;14.90;60.70
28087;DHT22;15392;48.912;8.380;2022-11-15T07:14:39;14.90;60.70
28087;DHT22;15392;48.912;8.380;2022-11-15T07:17:05;15.00;60.70
28087;DHT22;15392;48.912;8.380;2022-11-15T07:19:31;15.00;60.80
28087;DHT22;15392;48.912;8.380;2022-11-15T07:21:57;15.00;60.70
28087;DHT22;15392;48.912;8.380;2022-11-15T07:24:23;15.00;60.80
28087;DHT22;15392;48.912;8.380;2022-11-15T07:26:48;15.00;60.80
28087;DHT22;15392;48.912;8.380;2022-11-15T07:29:14;15.10;60.90
28087;DHT22;15392;48.912;8.380;2022-11-15T07:31:40;15.10;61.00
28087;DHT22;15392;48.912;8.380;2022-11-15T07:34:05;15.10;61.00
28087;DHT22;15392;48.912;8.380;2022-11-15T07:36:31;15.10;61.00
28087;DHT22;15392;48.912;8.380;2022-11-15T07:38:57;15.10;61.00
28087;DHT22;15392;48.912;8.380;2022-11-15T07:41:23;15.10;61.10
28087;DHT22;15392;48.912;8.380;2022-11-15T07:43:51;15.20;61.10
28087;DHT22;15392;48.912;8.380;2022-11-15T07:46:18;15.20;61.20
28087;DHT22;15392;48.912;8.380;2022-11-15T07:48:43;15.20;61.20
28087;DHT22;15392;48.912;8.380;2022-11-15T07:51:13;15.20;61.30
28087;DHT22;15392;48.912;8.380;2022-11-15T07:53:40;15.20;61.40
28087;DHT22;15392;48.912;8.380;2022-11-15T07:56:07;15.30;61.40
28087;DHT22;15392;48.912;8.380;2022-11-15T07:58:33;15.30;61.50
28087;DHT22;15392;48.912;8.380;2022-11-15T08:01:03;15.30;61.60
28087;DHT22;15392;48.912;8.380;2022-11-15T08:03:29;15.30;61.70
28087;DHT22;15392;48.912;8.380;2022-11-15T08:05:55;15.30;62.20
28087;DHT22;15392;48.912;8.380;2022-11-15T08:08:21;15.30;61.30
28087;DHT22;15392;48.912;8.380;2022-11-15T08:10:47;15.40;61.50
28087;DHT22;15392;48.912;8.380;2022-11-15T08:13:13;15.40;61.60
28087;DHT22;15392;48.912;8.380;2022-11-15T08:15:41;15.40;61.70
28087;DHT22;15392;48.912;8.380;2022-11-15T08:18:11;15.50;61.80
28087;DHT22;15392;48.912;8.380;2022-11-15T08:20:38;15.50;61.90
28087;DHT22;15392;48.912;8.380;2022-11-15T08:23:05;15.50;61.90
28087;DHT22;15392;48.912;8.380;2022-11-15T08:25:32;15.60;61.90
28087;DHT22;15392;48.912;8.380;2022-11-15T08:28:02;15.60;62.10
28087;DHT22;15392;48.912;8.380;2022-11-15T08:30:29;15.60;62.10
28087;DHT22;15392;48.912;8.380;2022-11-15T08:32:57;15.70;62.10
28087;DHT22;15392;48.912;8.380;2022-11-15T08:35:24;15.70;62.10
28087;DHT22;15392;48.912;8.380;2022-11-15T08:37:53;15.80;62.20
28087;DHT22;15392;48.912;8.380;2022-11-15T08:40:19;15.80;62.20
28087;DHT22;15392;48.912;8.380;2022-11-15T08:42:48;15.80;62.10
28087;DHT22;15392;48.912;8.380;2022-11-15T08:45:14;15.90;62.20
28087;DHT22;15392;48.912;8.380;2022-11-15T08:47:41;15.90;62.10
28087;DHT22;15392;48.912;8.380;2022-11-15T08:50:07;16.00;62.10
28087;DHT22;15392;48.912;8.380;2022-11-15T08:52:33;16.00;62.00
28087;DHT22;15392;48.912;8.380;2022-11-15T08:54:59;16.10;62.00
28087;DHT22;15392;48.912;8.380;2022-11-15T08:57:24;16.10;61.80
28087;DHT22;15392;48.912;8.380;2022-11-15T08:59:50;16.10;61.70
28087;DHT22;15392;48.912;8.380;2022-11-15T09:02:16;16.20;61.60
28087;DHT22;15392;48.912;8.380;2022-11-15T09:04:42;16.20;61.60
28087;DHT22;15392;48.912;8.380;2022-11-15T09:07:15;16.30;61.60
28087;DHT22;15392;48.912;8.380;2022-11-15T09:09:41;16.30;61.70
28087;DHT22;15392;48.912;8.380;2022-11-15T09:12:08;16.30;61.50
28087;DHT22;15392;48.912;8.380;2022-11-15T09:14:34;16.30;61.40
28087;DHT22;15392;48.912;8.380;2022-11-15T09:17:00;16.40;61.50
28087;DHT22;15392;48.912;8.380;2022-11-15T09:19:26;16.40;61.40
28087;DHT22;15392;48.912;8.380;2022-11-15T09:21:52;16.40;61.30
28087;DHT22;15392;48.912;8.380;2022-11-15T09:24:18;16.50;61.40
28087;DHT22;15392;48.912;8.380;2022-11-15T09:26:44;16.50;61.30
28087;DHT22;15392;48.912;8.380;2022-11-15T09:29:10;16.50;61.30
28087;DHT22;15392;48.912;8.380;2022-11-15T09:31:36;16.60;61.30
28087;DHT22;15392;48.912;8.380;2022-11-15T09:34:02;16.60;61.30
28087;DHT22;15392;48.912;8.380;2022-11-15T09:36:28;16.60;61.30
28087;DHT22;15392;48.912;8.380;2022-11-15T09:38:54;16.60;61.30
28087;DHT22;15392;48.912;8.380;2022-11-15T09:44:35;16.70;61.50
28087;DHT22;15392;48.912;8.380;2022-11-15T09:50:36;16.70;61.40
28087;DHT22;15392;48.912;8.380;2022-11-15T09:53:10;16.80;61.30
28087;DHT22;15392;48.912;8.380;2022-11-15T09:56:00;16.80;61.20
28087;DHT22;15392;48.912;8.380;2022-11-15T10:04:34;16.90;61.60
28087;DHT22;15392;48.912;8.380;2022-11-15T10:07:24;16.90;61.20
28087;DHT22;15392;48.912;8.380;2022-11-15T10:10:52;16.90;61.60
28087;DHT22;15392;48.912;8.380;2022-11-15T10:13:37;17.00;61.50
28087;DHT22;15392;48.912;8.380;2022-11-15T10:19:33;17.00;61.40
28087;DHT22;15392;48.912;8.380;2022-11-15T10:24:43;17.10;61.30
28087;DHT22;15392;48.912;8.380;2022-11-15T10:27:12;17.10;61.20
28087;DHT22;15392;48.912;8.380;2022-11-15T10:29:45;17.10;61.10
28087;DHT22;15392;48.912;8.380;2022-11-15T10:32:14;17.10;61.20
28087;DHT22;15392;48.912;8.380;2022-11-15T10:34:42;17.10;61.10
28087;DHT22;15392;48.912;8.380;2022-11-15T10:37:09;17.10;61.10
28087;DHT22;15392;48.912;8.380;2022-11-15T10:39:35;17.20;61.20
28087;DHT22;15392;48.912;8.380;2022-11-15T10:42:30;17.20;61.20
28087;DHT22;15392;48.912;8.380;2022-11-15T10:44:56;17.20;61.60
28087;DHT22;15392;48.912;8.380;2022-11-15T10:47:25;17.20;61.10
28087;DHT22;15392;48.912;8.380;2022-11-15T10:50:11;17.20;61.10
28087;DHT22;15392;48.912;8.380;2022-11-15T10:52:54;17.20;61.00
28087;DHT22;15392;48.912;8.380;2022-11-15T10:55:24;17.20;60.80
28087;DHT22;15392;48.912;8.380;2022-11-15T10:57:55;17.20;60.90
28087;DHT22;15392;48.912;8.380;2022-11-15T11:00:33;17.20;60.90
28087;DHT22;15392;48.912;8.380;2022-11-15T11:03:20;17.20;61.00
28087;DHT22;15392;48.912;8.380;2022-11-15T11:06:16;17.30;61.20
28087;DHT22;15392;48.912;8.380;2022-11-15T11:09:04;17.30;61.60
28087;DHT22;15392;48.912;8.380;2022-11-15T11:11:50;17.30;61.70
28087;DHT22;15392;48.912;8.380;2022-11-15T11:14:23;17.30;61.50
28087;DHT22;15392;48.912;8.380;2022-11-15T11:22:46;17.40;61.30
28087;DHT22;15392;48.912;8.380;2022-11-15T11:29:18;17.50;61.70
28087;DHT22;15392;48.912;8.380;2022-11-15T11:40:35;17.60;61.50
28087;DHT22;15392;48.912;8.380;2022-11-15T11:46:22;17.70;61.50
28087;DHT22;15392;48.912;8.380;2022-11-15T11:49:10;17.70;61.70
28087;DHT22;15392;48.912;8.380;2022-11-15T11:51:45;17.80;61.60
28087;DHT22;15392;48.912;8.380;2022-11-15T11:54:36;17.80;61.30
28087;DHT22;15392;48.912;8.380;2022-11-15T11:57:12;17.80;61.60
28087;DHT22;15392;48.912;8.380;2022-11-15T12:00:19;17.80;61.40
28087;DHT22;15392;48.912;8.380;2022-11-15T12:05:48;17.90;61.60
28087;DHT22;15392;48.912;8.380;2022-11-15T12:08:52;17.90;61.40
28087;DHT22;15392;48.912;8.380;2022-11-15T12:14:45;17.90;61.10
28087;DHT22;15392;48.912;8.380;2022-11-15T12:17:17;18.00;61.30
28087;DHT22;15392;48.912;8.380;2022-11-15T12:19:47;18.00;61.00
28087;DHT22;15392;48.912;8.380;2022-11-15T12:22:18;18.00;60.90
28087;DHT22;15392;48.912;8.380;2022-11-15T12:25:14;18.00;60.70
28087;DHT22;15392;48.912;8.380;2022-11-15T12:31:11;18.00;60.60
28087;DHT22;15392;48.912;8.380;2022-11-15T12:33:46;18.10;61.00
28087;DHT22;15392;48.912;8.380;2022-11-15T12:41:29;18.10;61.10
28087;DHT22;15392;48.912;8.380;2022-11-15T12:44:12;18.20;61.10
28087;DHT22;15392;48.912;8.380;2022-11-15T13:00:00;18.40;60.70
28087;DHT22;15392;48.912;8.380;2022-11-15T13:17:46;18.60;60.60
28087;DHT22;15392;48.912;8.380;2022-11-15T13:22:45;18.60;60.60
28087;DHT22;15392;48.912;8.380;2022-11-15T13:30:52;18.70;60.90
28087;DHT22;15392;48.912;8.380;2022-11-15T13:33:22;18.80;61.10
28087;DHT22;15392;48.912;8.380;2022-11-15T13:35:54;18.70;61.20
28087;DHT22;15392;48.912;8.380;2022-11-15T13:40:53;18.80;60.80
28087;DHT22;15392;48.912;8.380;2022-11-15T13:46:13;18.80;61.10
28087;DHT22;15392;48.912;8.380;2022-11-15T13:48:43;18.90;61.40
28087;DHT22;15392;48.912;8.380;2022-11-15T13:53:46;18.90;61.00
28087;DHT22;15392;48.912;8.380;2022-11-15T13:56:32;18.90;60.90
28087;DHT22;15392;48.912;8.380;2022-11-15T13:59:00;19.00;61.00
28087;DHT22;15392;48.912;8.380;2022-11-15T14:01:33;19.00;60.90
28087;DHT22;15392;48.912;8.380;2022-11-15T14:04:00;19.00;60.90
28087;DHT22;15392;48.912;8.380;2022-11-15T14:06:29;19.00;60.90
28087;DHT22;15392;48.912;8.380;2022-11-15T14:11:37;19.00;59.50
28087;DHT22;15392;48.912;8.380;2022-11-15T14:19:04;19.00;59.80
28087;DHT22;15392;48.912;8.380;2022-11-15T14:21:32;19.00;59.80
28087;DHT22;15392;48.912;8.380;2022-11-15T14:24:20;19.00;59.80
28087;DHT22;15392;48.912;8.380;2022-11-15T14:26:47;19.10;59.70
28087;DHT22;15392;48.912;8.380;2022-11-15T14:29:29;19.10;59.90
28087;DHT22;15392;48.912;8.380;2022-11-15T14:32:15;19.10;59.70
28087;DHT22;15392;48.912;8.380;2022-11-15T14:34:43;19.10;59.80
28087;DHT22;15392;48.912;8.380;2022-11-15T14:37:32;19.10;60.00
28087;DHT22;15392;48.912;8.380;2022-11-15T14:40:01;19.10;60.10
28087;DHT22;15392;48.912;8.380;2022-11-15T14:42:31;19.10;60.10
28087;DHT22;15392;48.912;8.380;2022-11-15T14:44:57;19.10;60.20
28087;DHT22;15392;48.912;8.380;2022-11-15T14:47:24;19.20;60.40
28087;DHT22;15392;48.912;8.380;2022-11-15T14:49:50;19.20;60.40
28087;DHT22;15392;48.912;8.380;2022-11-15T14:52:31;19.20;60.40
28087;DHT22;15392;48.912;8.380;2022-11-15T14:55:03;19.20;60.30
28087;DHT22;15392;48.912;8.380;2022-11-15T14:57:57;19.20;60.20
28087;DHT22;15392;48.912;8.380;2022-11-15T15:00:24;19.20;60.20
28087;DHT22;15392;48.912;8.380;2022-11-15T15:02:53;19.10;60.00
28087;DHT22;15392;48.912;8.380;2022-11-15T15:05:23;19.10;59.90
28087;DHT22;15392;48.912;8.380;2022-11-15T15:08:10;19.10;59.80
28087;DHT22;15392;48.912;8.380;2022-11-15T15:10:38;19.00;59.70
28087;DHT22;15392;48.912;8.380;2022-11-15T15:13:20;19.00;59.80
28087;DHT22;15392;48.912;8.380;2022-11-15T15:15:48;19.00;59.70
28087;DHT22;15392;48.912;8.380;2022-11-15T15:18:17;19.00;60.20
28087;DHT22;15392;48.912;8.380;2022-11-15T15:20:44;19.00;59.90
28087;DHT22;15392;48.912;8.380;2022-11-15T15:23:18;19.00;59.90
28087;DHT22;15392;48.912;8.380;2022-11-15T15:25:46;19.00;59.80
28087;DHT22;15392;48.912;8.380;2022-11-15T15:28:14;18.90;59.80
28087;DHT22;15392;48.912;8.380;2022-11-15T15:30:40;18.90;59.70
28087;DHT22;15392;48.912;8.380;2022-11-15T15:33:07;18.90;59.70
28087;DHT22;15392;48.912;8.380;2022-11-15T15:35:34;18.80;59.70
28087;DHT22;15392;48.912;8.380;2022-11-15T15:38:00;18.80;59.70
28087;DHT22;15392;48.912;8.380;2022-11-15T15:40:29;18.70;59.70
28087;DHT22;15392;48.912;8.380;2022-11-15T15:42:56;18.70;59.80
28087;DHT22;15392;48.912;8.380;2022-11-15T15:45:22;18.70;59.80
28087;DHT22;15392;48.912;8.380;2022-11-15T15:47:47;18.60;59.80
28087;DHT22;15392;48.912;8.380;2022-11-15T15:50:24;18.60;59.90
28087;DHT22;15392;48.912;8.380;2022-11-15T15:52:53;18.60;59.90
28087;DHT22;15392;48.912;8.380;2022-11-15T15:55:20;18.50;59.90
28087;DHT22;15392;48.912;8.380;2022-11-15T15:57:47;18.50;59.90
28087;DHT22;15392;48.912;8.380;2022-11-15T16:00:13;18.50;60.00
28087;DHT22;15392;48.912;8.380;2022-11-15T16:02:40;18.50;60.00
28087;DHT22;15392;48.912;8.380;2022-11-15T16:05:07;18.50;60.00
28087;DHT22;15392;48.912;8.380;2022-11-15T16:07:33;18.50;60.00
28087;DHT22;15392;48.912;8.380;2022-11-15T16:09:59;18.50;59.90
28087;DHT22;15392;48.912;8.380;2022-11-15T16:12:34;18.50;59.70
28087;DHT22;15392;48.912;8.380;2022-11-15T16:15:01;18.50;59.60
28087;DHT22;15392;48.912;8.380;2022-11-15T16:17:34;18.40;59.40
28087;DHT22;15392;48.912;8.380;2022-11-15T16:20:03;18.40;59.40
28087;DHT22;15392;48.912;8.380;2022-11-15T16:22:29;18.40;59.30
28087;DHT22;15392;48.912;8.380;2022-11-15T16:24:55;18.40;59.30
28087;DHT22;15392;48.912;8.380;2022-11-15T16:27:22;18.30;59.90
28087;DHT22;15392;48.912;8.380;2022-11-15T16:29:49;18.30;59.30
28087;DHT22;15392;48.912;8.380;2022-11-15T16:32:15;18.30;59.40
28087;DHT22;15392;48.912;8.380;2022-11-15T16:34:41;18.30;59.50
28087;DHT22;15392;48.912;8.380;2022-11-15T16:37:23;18.20;59.50
28087;DHT22;15392;48.912;8.380;2022-11-15T16:39:49;18.20;59.60
28087;DHT22;15392;48.912;8.380;2022-11-15T16:42:15;18.20;59.70
28087;DHT22;15392;48.912;8.380;2022-11-15T16:44:41;18.20;59.70
28087;DHT22;15392;48.912;8.380;2022-11-15T16:47:17;18.10;59.70
28087;DHT22;15392;48.912;8.380;2022-11-15T16:49:47;18.10;59.70
28087;DHT22;15392;48.912;8.380;2022-11-15T16:52:13;18.10;59.70
28087;DHT22;15392;48.912;8.380;2022-11-15T16:54:39;18.10;59.70
28087;DHT22;15392;48.912;8.380;2022-11-15T16:57:05;18.10;59.70
28087;DHT22;15392;48.912;8.380;2022-11-15T16:59:32;18.10;59.60
28087;DHT22;15392;48.912;8.380;2022-11-15T17:01:58;18.00;59.50
28087;DHT22;15392;48.912;8.380;2022-11-15T17:04:23;18.10;59.50
28087;DHT22;15392;48.912;8.380;2022-11-15T17:06:52;18.10;59.50
28087;DHT22;15392;48.912;8.380;2022-11-15T17:09:20;18.10;59.50
28087;DHT22;15392;48.912;8.380;2022-11-15T17:11:49;18.10;59.40
28087;DHT22;15392;48.912;8.380;2022-11-15T17:14:15;18.10;59.40
28087;DHT22;15392;48.912;8.380;2022-11-15T17:16:41;18.10;59.20
28087;DHT22;15392;48.912;8.380;2022-11-15T17:19:17;18.10;59.20
28087;DHT22;15392;48.912;8.380;2022-11-15T17:21:46;18.10;59.00
28087;DHT22;15392;48.912;8.380;2022-11-15T17:24:14;18.10;59.20
28087;DHT22;15392;48.912;8.380;2022-11-15T17:26:39;18.10;59.10
28087;DHT22;15392;48.912;8.380;2022-11-15T17:29:07;18.10;59.10
28087;DHT22;15392;48.912;8.380;2022-11-15T17:31:34;18.10;59.10
28087;DHT22;15392;48.912;8.380;2022-11-15T17:34:02;18.10;59.10
28087;DHT22;15392;48.912;8.380;2022-11-15T17:36:28;18.10;59.10
28087;DHT22;15392;48.912;8.380;2022-11-15T17:38:54;18.10;59.10
28087;DHT22;15392;48.912;8.380;2022-11-15T17:41:20;18.10;59.00
28087;DHT22;15392;48.912;8.380;2022-11-15T17:43:46;18.10;59.00
28087;DHT22;15392;48.912;8.380;2022-11-15T17:46:17;18.10;58.80
28087;DHT22;15392;48.912;8.380;2022-11-15T17:48:45;18.10;58.80
28087;DHT22;15392;48.912;8.380;2022-11-15T17:51:14;18.10;59.00
28087;DHT22;15392;48.912;8.380;2022-11-15T17:53:42;18.00;59.70
28087;DHT22;15392;48.912;8.380;2022-11-15T17:56:12;18.00;59.10
28087;DHT22;15392;48.912;8.380;2022-11-15T17:58:39;18.00;59.70
28087;DHT22;15392;48.912;8.380;2022-11-15T18:01:18;18.00;59.10
28087;DHT22;15392;48.912;8.380;2022-11-15T18:03:45;18.00;59.00
28087;DHT22;15392;48.912;8.380;2022-11-15T18:06:12;18.00;59.10